Time;durP1;ratioP1;P1;durP2;ratioP2;P2;SDS_P1;SDS_P2;PMS_P1;PMS_P2;Temp;Humidity;BMP_temperature;BMP_pressure;BME280_temperature;BME280_humidity;BME280_pressure;Samples;Min_cycle;Max_cycle;Signal;HPM_P1;HPM_P2
2022/12/13 00:01:22;;;;;;;2.23;2.03;;;-4.60;97.30;;;;;;4979791;28;20509;-85
2022/12/13 00:03:48;;;;;;;2.00;1.90;;;-4.70;97.30;;;;;;4975899;28;20414;-88
2022/12/13 00:06:13;;;;;;;1.90;1.80;;;-4.70;97.30;;;;;;4957890;28;20569;-87
2022/12/13 00:08:40;;;;;;;2.53;2.33;;;-4.80;97.30;;;;;;4957475;28;20218;-87
2022/12/13 00:11:09;;;;;;;2.90;2.70;;;-4.80;97.30;;;;;;4954278;28;20335;-84
2022/12/13 00:13:35;;;;;;;2.80;2.60;;;-4.80;97.30;;;;;;4978213;28;20426;-86
2022/12/13 00:16:03;;;;;;;3.20;3.00;;;-4.90;97.30;;;;;;4975408;28;20492;-84
2022/12/13 00:18:29;;;;;;;3.80;2.23;;;-4.90;97.30;;;;;;4959539;28;20224;-84
2022/12/13 00:20:54;;;;;;;3.27;3.07;;;-4.90;97.30;;;;;;4975576;28;20801;-88
2022/12/13 00:23:20;;;;;;;2.90;2.70;;;-5.00;97.30;;;;;;4970166;28;20462;-85
2022/12/13 00:25:46;;;;;;;9.33;3.23;;;-4.90;97.30;;;;;;4953462;28;20547;-86
2022/12/13 00:28:12;;;;;;;7.10;2.70;;;-5.00;97.30;;;;;;4959247;28;20214;-84
2022/12/13 00:30:39;;;;;;;4.47;4.17;;;-5.00;97.30;;;;;;4973475;28;20433;-83
2022/12/13 00:33:05;;;;;;;3.17;2.00;;;-5.00;97.30;;;;;;4970360;28;20426;-84
2022/12/13 00:35:31;;;;;;;2.43;2.23;;;-5.10;97.30;;;;;;4974480;28;20433;-84
2022/12/13 00:37:57;;;;;;;2.60;2.40;;;-5.10;97.30;;;;;;4957939;28;20604;-84
2022/12/13 00:40:23;;;;;;;2.30;2.10;;;-5.30;97.30;;;;;;4976949;28;20494;-86
2022/12/13 00:42:48;;;;;;;2.60;2.13;;;-5.30;97.30;;;;;;4965189;28;20777;-84
2022/12/13 00:45:14;;;;;;;4.60;4.30;;;-5.30;97.30;;;;;;4976441;28;20196;-86
2022/12/13 00:47:40;;;;;;;5.50;2.53;;;-5.40;97.30;;;;;;4960941;28;20190;-84
2022/12/13 00:50:06;;;;;;;3.63;2.97;;;-5.40;97.30;;;;;;4960840;28;20432;-83
2022/12/13 00:52:35;;;;;;;24.57;4.90;;;-5.40;97.30;;;;;;4960555;28;20201;-84
2022/12/13 00:55:00;;;;;;;2.43;2.23;;;-5.40;97.30;;;;;;4976161;28;21025;-85
2022/12/13 00:57:26;;;;;;;1.80;1.70;;;-5.50;97.30;;;;;;4960409;28;20421;-83
2022/12/13 00:59:52;;;;;;;2.07;1.93;;;-5.50;97.30;;;;;;4974044;28;20241;-84
2022/12/13 01:02:17;;;;;;;5.53;2.80;;;-5.50;97.30;;;;;;4963388;28;20267;-84
2022/12/13 01:04:43;;;;;;;1.70;1.60;;;-5.50;97.30;;;;;;4958927;28;20193;-84
2022/12/13 01:07:08;;;;;;;2.30;2.10;;;-5.60;97.30;;;;;;4964802;28;20237;-83
2022/12/13 01:09:34;;;;;;;1.60;1.50;;;-5.50;97.30;;;;;;4964181;28;20224;-86
2022/12/13 01:12:02;;;;;;;14.63;5.87;;;-5.50;97.30;;;;;;4959846;28;20264;-83
2022/12/13 01:14:28;;;;;;;5.87;3.47;;;-5.60;97.30;;;;;;4965041;28;20539;-83
2022/12/13 01:16:54;;;;;;;2.27;2.10;;;-5.60;97.30;;;;;;4959611;28;20441;-84
2022/12/13 01:19:24;;;;;;;1.80;1.70;;;-5.60;97.30;;;;;;4962387;28;20446;-85
2022/12/13 01:21:54;;;;;;;3.33;1.40;;;-5.70;97.30;;;;;;4959986;28;20426;-85
2022/12/13 01:24:21;;;;;;;2.07;1.93;;;-5.70;97.30;;;;;;4975070;28;21098;-84
2022/12/13 01:26:47;;;;;;;3.10;2.90;;;-5.70;97.30;;;;;;4960071;28;20792;-84
2022/12/13 01:29:13;;;;;;;2.30;2.10;;;-5.70;97.30;;;;;;4974187;28;20546;-85
2022/12/13 01:31:40;;;;;;;4.80;4.50;;;-5.70;97.30;;;;;;4976295;28;20182;-86
2022/12/13 01:34:17;;;;;;;2.37;2.17;;;-5.70;97.30;;;;;;4997332;28;20251;-87
2022/12/13 01:36:44;;;;;;;3.53;2.90;;;-5.80;97.30;;;;;;4995071;28;20732;-86
2022/12/13 01:39:12;;;;;;;2.60;1.50;;;-5.80;97.30;;;;;;4994843;28;20895;-83
2022/12/13 01:41:38;;;;;;;5.90;1.97;;;-5.80;97.30;;;;;;4993963;28;20471;-85
2022/12/13 01:44:43;;;;;;;5.93;5.03;;;-5.80;97.30;;;;;;4994418;28;20423;-84
2022/12/13 01:47:09;;;;;;;6.53;2.83;;;-5.90;97.30;;;;;;4989769;28;20180;-82
2022/12/13 01:49:34;;;;;;;2.73;2.53;;;-5.90;97.30;;;;;;4994843;28;20466;-86
2022/12/13 01:52:05;;;;;;;2.57;2.37;;;-6.00;97.30;;;;;;4994868;28;20420;-87
2022/12/13 01:54:36;;;;;;;2.33;2.13;;;-6.00;97.30;;;;;;4995908;28;20189;-84
2022/12/13 01:57:05;;;;;;;2.10;1.87;;;-6.00;97.30;;;;;;4996027;28;20425;-86
2022/12/13 01:59:33;;;;;;;2.57;2.37;;;-6.10;97.30;;;;;;4993883;28;20483;-83
2022/12/13 02:01:58;;;;;;;2.07;1.93;;;-6.10;97.30;;;;;;4988931;28;20430;-85
2022/12/13 02:04:38;;;;;;;3.27;2.10;;;-6.10;97.30;;;;;;4994269;28;20500;-84
2022/12/13 02:07:05;;;;;;;2.47;2.27;;;-6.10;97.30;;;;;;4968300;28;20184;-86
2022/12/13 02:09:33;;;;;;;2.37;2.17;;;-6.10;97.30;;;;;;4981786;28;20482;-86
2022/12/13 02:11:59;;;;;;;1.60;1.50;;;-6.10;97.30;;;;;;4977808;28;20526;-83
2022/12/13 02:14:24;;;;;;;1.97;1.70;;;-6.10;97.30;;;;;;4976082;28;20444;-86
2022/12/13 02:17:05;;;;;;;3.60;2.63;;;-6.10;97.30;;;;;;4972584;28;20423;-83
2022/12/13 02:19:54;;;;;;;1.30;1.20;;;-6.20;97.30;;;;;;4978484;28;20748;-86
2022/12/13 02:22:55;;;;;;;2.93;2.17;;;-6.20;97.30;;;;;;4994322;28;20431;-82
2022/12/13 02:25:45;;;;;;;2.83;2.17;;;-6.30;97.30;;;;;;4978744;28;20431;-83
2022/12/13 02:29:08;;;;;;;2.53;2.33;;;-6.40;97.30;;;;;;4985811;28;20760;-87
2022/12/13 02:31:58;;;;;;;5.90;4.93;;;-6.50;97.30;;;;;;4913143;29;20436;-86
2022/12/13 02:34:29;;;;;;;1.40;1.30;;;-6.50;97.30;;;;;;4971923;28;20436;-83
2022/12/13 02:37:02;;;;;;;1.77;1.70;;;-6.50;97.30;;;;;;4995199;28;20502;-84
2022/12/13 02:39:34;;;;;;;3.17;2.97;;;-6.60;97.30;;;;;;4968409;28;20454;-84
2022/12/13 02:42:11;;;;;;;1.63;1.53;;;-6.60;97.30;;;;;;4983069;28;20949;-84
2022/12/13 02:44:41;;;;;;;2.07;1.93;;;-6.60;97.30;;;;;;5000826;28;20423;-84
2022/12/13 02:47:16;;;;;;;1.97;1.83;;;-6.60;97.30;;;;;;4998838;28;20431;-85
2022/12/13 02:49:46;;;;;;;1.57;1.47;;;-6.60;97.30;;;;;;4982418;28;20464;-83
2022/12/13 02:52:14;;;;;;;11.23;3.43;;;-6.60;97.30;;;;;;4999506;28;20497;-84
2022/12/13 02:54:40;;;;;;;4.37;4.10;;;-6.60;97.30;;;;;;4999547;28;20427;-86
2022/12/13 02:57:34;;;;;;;3.30;3.10;;;-6.60;97.30;;;;;;5001829;28;20429;-84
2022/12/13 03:00:20;;;;;;;1.93;1.83;;;-6.60;97.30;;;;;;4983791;28;20207;-83
2022/12/13 03:03:22;;;;;;;2.37;2.17;;;-6.60;97.30;;;;;;4989435;28;21034;-83
2022/12/13 03:08:53;;;;;;;2.60;1.63;;;-6.60;97.30;;;;;;5001716;28;21013;-85
2022/12/13 03:11:20;;;;;;;3.30;3.10;;;-6.60;97.30;;;;;;4987093;28;20430;-85
2022/12/13 03:13:51;;;;;;;1.73;1.63;;;-6.70;97.30;;;;;;4993339;28;20419;-84
2022/12/13 03:16:26;;;;;;;3.00;2.80;;;-6.70;97.30;;;;;;4975246;28;20489;-82
2022/12/13 03:18:56;;;;;;;1.70;1.60;;;-6.80;97.30;;;;;;5002397;28;20454;-86
2022/12/13 03:21:21;;;;;;;2.50;2.30;;;-6.80;97.30;;;;;;4987271;28;20993;-84
2022/12/13 03:23:47;;;;;;;1.93;1.83;;;-6.80;97.30;;;;;;5002802;28;20415;-83
2022/12/13 03:26:17;;;;;;;5.33;2.70;;;-6.80;97.30;;;;;;5003064;28;20560;-83
2022/12/13 03:28:42;;;;;;;1.67;1.57;;;-6.80;97.30;;;;;;4995472;28;20228;-86
2022/12/13 03:31:08;;;;;;;2.83;2.63;;;-6.80;97.30;;;;;;4989191;28;20487;-85
2022/12/13 03:33:34;;;;;;;1.73;1.63;;;-6.90;97.30;;;;;;5018604;28;20199;-84
2022/12/13 03:36:00;;;;;;;7.93;2.83;;;-6.90;97.30;;;;;;4990466;28;20191;-86
2022/12/13 03:38:26;;;;;;;1.60;1.50;;;-7.00;97.30;;;;;;4997161;28;20820;-82
2022/12/13 03:40:55;;;;;;;2.90;2.70;;;-7.00;97.30;;;;;;4981121;28;20419;-82
2022/12/13 03:43:21;;;;;;;2.20;2.00;;;-6.90;97.30;;;;;;4993053;28;20423;-86
2022/12/13 03:45:46;;;;;;;2.63;2.43;;;-6.90;97.30;;;;;;4981437;28;20433;-84
2022/12/13 03:48:12;;;;;;;3.67;2.87;;;-6.90;97.30;;;;;;4992822;28;20682;-82
2022/12/13 03:50:37;;;;;;;2.30;2.00;;;-6.90;97.30;;;;;;4980829;28;20193;-83
2022/12/13 03:53:03;;;;;;;3.60;3.40;;;-6.90;97.30;;;;;;4982095;28;20188;-83
2022/12/13 03:55:29;;;;;;;2.93;2.73;;;-6.80;97.30;;;;;;4981799;28;20186;-83
2022/12/13 03:57:55;;;;;;;2.33;2.17;;;-6.80;97.30;;;;;;4999337;28;20262;-84
2022/12/13 04:00:21;;;;;;;5.60;4.07;;;-6.80;97.30;;;;;;4997442;23;20490;-84
2022/12/13 04:02:46;;;;;;;2.33;2.17;;;-6.80;97.30;;;;;;4958524;28;20487;-84
2022/12/13 04:05:12;;;;;;;1.90;1.80;;;-6.90;97.30;;;;;;4974351;28;20382;-83
2022/12/13 04:07:37;;;;;;;2.70;1.43;;;-6.90;97.30;;;;;;4957865;28;20254;-83
2022/12/13 04:10:03;;;;;;;4.63;3.23;;;-7.00;97.30;;;;;;4958613;28;20204;-84
2022/12/13 04:15:13;;;;;;;2.60;1.77;;;-7.10;97.30;;;;;;4975677;28;20422;-84
2022/12/13 04:17:39;;;;;;;1.70;1.60;;;-7.20;97.30;;;;;;4975753;28;20423;-84
2022/12/13 04:20:05;;;;;;;2.20;2.00;;;-7.20;97.30;;;;;;4958268;28;20203;-84
2022/12/13 04:22:30;;;;;;;3.03;2.83;;;-7.20;97.30;;;;;;4958470;28;20282;-83
2022/12/13 04:24:56;;;;;;;3.40;3.20;;;-7.20;97.30;;;;;;4957655;28;20712;-84
2022/12/13 04:27:21;;;;;;;2.53;2.33;;;-7.20;97.30;;;;;;4957644;28;20340;-84
2022/12/13 04:29:47;;;;;;;2.17;2.00;;;-7.20;97.30;;;;;;4957487;28;20211;-84
2022/12/13 04:32:12;;;;;;;2.43;2.23;;;-7.20;97.30;;;;;;4958203;28;20176;-84
2022/12/13 04:34:38;;;;;;;9.83;3.00;;;-7.20;97.30;;;;;;4958014;28;20172;-83
2022/12/13 04:37:04;;;;;;;3.10;2.90;;;-7.30;97.30;;;;;;4958301;28;20179;-84
2022/12/13 04:39:29;;;;;;;1.73;1.63;;;-7.30;97.30;;;;;;4975223;28;20252;-82
2022/12/13 04:41:55;;;;;;;2.67;1.80;;;-7.30;97.30;;;;;;4975474;28;20431;-83
2022/12/13 04:44:21;;;;;;;1.80;1.70;;;-7.30;97.30;;;;;;4943432;28;20232;-84
2022/12/13 04:46:46;;;;;;;1.83;1.73;;;-7.30;97.30;;;;;;4968338;28;20184;-83
2022/12/13 04:49:12;;;;;;;7.90;4.17;;;-7.30;97.30;;;;;;4957401;28;20211;-83
2022/12/13 04:51:37;;;;;;;2.40;1.80;;;-7.30;97.30;;;;;;4957487;28;20224;-83
2022/12/13 04:54:03;;;;;;;1.57;1.47;;;-7.30;97.30;;;;;;4957500;28;20188;-84
2022/12/13 04:56:28;;;;;;;2.13;1.97;;;-7.30;97.30;;;;;;4975632;28;20670;-83
2022/12/13 04:58:54;;;;;;;2.33;2.13;;;-7.40;97.30;;;;;;4958456;28;20216;-83
2022/12/13 05:01:19;;;;;;;1.63;1.53;;;-7.40;97.30;;;;;;4975618;28;20633;-83
2022/12/13 05:03:45;;;;;;;7.90;4.30;;;-7.50;97.30;;;;;;4975469;28;20215;-84
2022/12/13 05:06:13;;;;;;;3.30;3.10;;;-7.50;97.30;;;;;;4958528;28;20207;-83
2022/12/13 05:08:39;;;;;;;1.30;1.20;;;-7.60;97.30;;;;;;4958592;28;20211;-83
2022/12/13 05:11:06;;;;;;;2.50;2.30;;;-7.60;97.30;;;;;;4945837;28;20919;-84
2022/12/13 05:13:32;;;;;;;2.00;1.90;;;-7.60;97.30;;;;;;4975836;28;20419;-82
2022/12/13 05:16:02;;;;;;;1.57;1.47;;;-7.60;97.30;;;;;;4957673;28;20480;-84
2022/12/13 05:18:28;;;;;;;4.77;2.00;;;-7.60;97.30;;;;;;4957690;28;20428;-83
2022/12/13 05:20:54;;;;;;;2.27;2.07;;;-7.60;97.30;;;;;;4957819;28;20467;-83
2022/12/13 05:23:23;;;;;;;4.40;2.33;;;-7.60;97.30;;;;;;4957848;28;20431;-84
2022/12/13 05:25:49;;;;;;;5.23;4.93;;;-7.60;97.30;;;;;;4963146;28;20425;-84
2022/12/13 05:28:15;;;;;;;1.40;1.30;;;-7.70;97.30;;;;;;4956980;28;20964;-84
2022/12/13 05:30:42;;;;;;;2.70;2.50;;;-7.70;97.30;;;;;;4957206;28;20460;-84
2022/12/13 05:33:08;;;;;;;2.40;1.93;;;-7.70;97.30;;;;;;4974468;28;20217;-84
2022/12/13 05:35:34;;;;;;;1.40;1.30;;;-7.70;97.30;;;;;;4957801;28;20449;-84
2022/12/13 05:38:00;;;;;;;1.80;1.77;;;-7.70;97.30;;;;;;4957393;28;20580;-84
2022/12/13 05:40:29;;;;;;;1.67;1.57;;;-7.70;97.30;;;;;;4957020;28;20829;-84
2022/12/13 05:42:54;;;;;;;2.63;2.43;;;-7.70;97.30;;;;;;4957819;28;20192;-84
2022/12/13 05:45:21;;;;;;;6.00;3.37;;;-7.80;97.30;;;;;;4956985;28;20421;-83
2022/12/13 05:47:47;;;;;;;4.20;3.23;;;-7.80;97.30;;;;;;4955807;28;20187;-84
2022/12/13 05:50:15;;;;;;;1.97;1.87;;;-7.80;97.30;;;;;;4945846;28;20574;-84
2022/12/13 05:52:42;;;;;;;2.33;2.13;;;-7.80;97.30;;;;;;4973582;28;20483;-84
2022/12/13 05:55:08;;;;;;;1.53;1.43;;;-7.80;97.30;;;;;;4974490;28;20429;-83
2022/12/13 05:57:34;;;;;;;1.67;1.57;;;-7.80;97.30;;;;;;4956694;28;20433;-84
2022/12/13 06:00:00;;;;;;;2.63;2.43;;;-7.80;97.30;;;;;;4956285;28;20476;-84
2022/12/13 06:02:26;;;;;;;12.63;5.03;;;-7.80;97.30;;;;;;4956757;28;20196;-84
2022/12/13 06:04:51;;;;;;;18.13;4.00;;;-7.70;97.30;;;;;;4956119;28;20196;-84
2022/12/13 06:07:17;;;;;;;2.63;2.43;;;-7.70;97.30;;;;;;4955392;28;20194;-84
2022/12/13 06:09:42;;;;;;;2.17;2.00;;;-7.60;97.30;;;;;;4955269;28;20278;-84
2022/12/13 06:12:11;;;;;;;5.37;5.07;;;-7.60;97.30;;;;;;4955524;28;20562;-84
2022/12/13 06:14:37;;;;;;;1.63;1.53;;;-7.50;97.30;;;;;;4955160;28;20184;-84
2022/12/13 06:17:03;;;;;;;1.40;1.30;;;-7.50;97.30;;;;;;4955461;28;20427;-84
2022/12/13 06:19:28;;;;;;;2.73;2.53;;;-7.60;97.30;;;;;;4955620;28;20209;-83
2022/12/13 06:21:54;;;;;;;2.90;2.70;;;-7.60;97.30;;;;;;4955449;28;20818;-83
2022/12/13 06:24:21;;;;;;;1.53;1.43;;;-7.70;97.30;;;;;;4970114;28;20186;-83
2022/12/13 06:26:49;;;;;;;3.27;3.07;;;-7.70;97.30;;;;;;4969743;28;20210;-84
2022/12/13 06:29:16;;;;;;;8.40;4.50;;;-7.70;97.30;;;;;;4955425;28;20474;-85
2022/12/13 06:31:42;;;;;;;2.57;2.37;;;-7.80;97.30;;;;;;4953885;28;20458;-84
2022/12/13 06:34:07;;;;;;;12.50;6.30;;;-7.80;97.30;;;;;;4955844;28;20438;-84
2022/12/13 06:36:33;;;;;;;10.03;5.50;;;-7.80;97.30;;;;;;4955433;28;20214;-85
2022/12/13 06:39:03;;;;;;;10.83;7.17;;;-7.80;97.30;;;;;;4955611;28;20692;-84
2022/12/13 06:41:29;;;;;;;16.97;8.53;;;-7.80;97.30;;;;;;4954741;28;20191;-83
2022/12/13 06:43:54;;;;;;;10.33;9.80;;;-7.80;97.30;;;;;;4960049;28;20418;-84
2022/12/13 06:46:20;;;;;;;6.80;4.87;;;-7.80;97.30;;;;;;4956587;28;20215;-84
2022/12/13 06:48:45;;;;;;;7.43;4.37;;;-7.90;97.30;;;;;;4956404;28;20235;-85
2022/12/13 06:51:11;;;;;;;5.07;4.47;;;-7.90;97.30;;;;;;4956010;28;20198;-83
2022/12/13 06:53:40;;;;;;;5.60;3.43;;;-8.00;97.30;;;;;;4956391;28;20195;-84
2022/12/13 06:56:11;;;;;;;2.93;2.73;;;-7.90;97.30;;;;;;4953283;28;20280;-84
2022/12/13 06:58:37;;;;;;;3.20;3.00;;;-8.00;97.30;;;;;;4949503;28;20432;-83
2022/12/13 07:01:05;;;;;;;3.33;2.90;;;-8.00;97.30;;;;;;4949837;28;20598;-84
2022/12/13 07:03:31;;;;;;;6.23;3.43;;;-8.00;97.30;;;;;;4952479;28;20427;-84
2022/12/13 07:06:04;;;;;;;1.50;1.40;;;-8.00;97.30;;;;;;4950788;28;20469;-84
2022/12/13 07:08:30;;;;;;;4.27;2.80;;;-8.00;97.30;;;;;;4972297;28;20548;-83
2022/12/13 07:10:56;;;;;;;2.00;1.90;;;-8.00;97.30;;;;;;4955284;28;20493;-85
2022/12/13 07:13:22;;;;;;;2.63;2.43;;;-8.00;97.30;;;;;;4972756;28;20925;-85
2022/12/13 07:15:48;;;;;;;1.83;1.73;;;-8.10;97.30;;;;;;4954467;28;20432;-85
2022/12/13 07:18:13;;;;;;;7.53;2.70;;;-7.90;97.30;;;;;;4955369;28;20631;-86
2022/12/13 07:20:40;;;;;;;1.53;1.43;;;-7.90;97.30;;;;;;4954774;28;20619;-85
2022/12/13 07:23:06;;;;;;;3.77;3.57;;;-7.80;97.30;;;;;;4955187;28;20183;-85
2022/12/13 07:25:31;;;;;;;8.43;4.50;;;-7.80;97.30;;;;;;4956133;28;20580;-85
2022/12/13 07:28:00;;;;;;;4.73;2.70;;;-7.80;97.30;;;;;;4958691;28;20430;-86
2022/12/13 07:30:25;;;;;;;6.53;3.43;;;-7.70;97.30;;;;;;4953714;28;20225;-86
2022/12/13 07:32:51;;;;;;;1.87;1.77;;;-7.70;97.30;;;;;;4958742;28;20425;-85
2022/12/13 07:35:17;;;;;;;2.70;2.50;;;-7.70;97.30;;;;;;4958040;28;20183;-85
2022/12/13 07:37:42;;;;;;;5.03;4.73;;;-7.70;97.30;;;;;;4958362;28;20190;-85
2022/12/13 07:40:09;;;;;;;1.67;1.57;;;-7.70;97.30;;;;;;4957866;28;20210;-85
2022/12/13 07:42:34;;;;;;;16.00;4.10;;;-7.70;97.30;;;;;;4957765;28;20192;-86
2022/12/13 07:45:00;;;;;;;5.50;2.90;;;-7.70;97.30;;;;;;4957332;28;20437;-85
2022/12/13 07:47:30;;;;;;;2.40;1.63;;;-7.70;97.30;;;;;;4956877;28;20195;-85
2022/12/13 07:49:56;;;;;;;2.53;2.33;;;-7.70;97.30;;;;;;4973175;28;20224;-85
2022/12/13 07:52:21;;;;;;;8.70;4.60;;;-7.70;97.30;;;;;;4955839;28;20427;-84
2022/12/13 07:54:47;;;;;;;2.20;2.00;;;-7.60;97.30;;;;;;4955888;28;20424;-85
2022/12/13 07:57:12;;;;;;;3.13;2.93;;;-7.60;97.30;;;;;;4956308;28;20266;-85
2022/12/13 07:59:38;;;;;;;2.97;2.77;;;-7.50;97.30;;;;;;4951091;28;20270;-83
2022/12/13 08:02:05;;;;;;;1.40;1.30;;;-7.50;97.30;;;;;;4956971;28;20205;-86
2022/12/13 08:04:31;;;;;;;2.20;1.93;;;-7.40;97.30;;;;;;4956693;28;20188;-85
2022/12/13 08:06:56;;;;;;;2.40;2.20;;;-7.30;97.30;;;;;;4956876;28;20954;-85
2022/12/13 08:09:22;;;;;;;6.77;4.37;;;-7.30;97.30;;;;;;4956733;28;20614;-85
2022/12/13 08:11:48;;;;;;;5.47;3.43;;;-7.20;97.30;;;;;;4956840;28;20183;-85
2022/12/13 08:14:13;;;;;;;5.97;3.53;;;-7.10;97.30;;;;;;4957359;28;20187;-85
2022/12/13 08:16:39;;;;;;;1.87;1.77;;;-7.10;97.30;;;;;;4957297;28;20191;-84
2022/12/13 08:19:04;;;;;;;13.33;4.50;;;-7.00;97.30;;;;;;4974788;28;20638;-85
2022/12/13 08:21:35;;;;;;;3.13;2.93;;;-6.90;97.30;;;;;;4956653;28;20211;-85
2022/12/13 08:24:00;;;;;;;6.30;2.53;;;-6.80;97.30;;;;;;4974061;28;20209;-86
2022/12/13 08:26:26;;;;;;;1.80;1.70;;;-6.80;97.30;;;;;;4955744;28;20983;-85
2022/12/13 08:28:51;;;;;;;1.40;1.30;;;-6.70;97.30;;;;;;4948727;28;20217;-85
2022/12/13 08:31:17;;;;;;;2.90;2.47;;;-6.60;97.30;;;;;;4956431;28;20180;-85
2022/12/13 08:33:45;;;;;;;3.43;2.83;;;-6.60;97.30;;;;;;4955551;28;20557;-85
2022/12/13 08:36:16;;;;;;;7.50;3.23;;;-6.50;97.30;;;;;;4955959;28;20176;-85
2022/12/13 08:38:43;;;;;;;2.27;2.07;;;-6.40;97.30;;;;;;4963997;28;20490;-85
2022/12/13 08:41:09;;;;;;;2.97;2.77;;;-6.30;97.30;;;;;;4955863;28;20514;-85
2022/12/13 08:43:35;;;;;;;7.63;7.23;;;-6.30;97.30;;;;;;4973700;28;20420;-85
2022/12/13 08:46:01;;;;;;;4.47;2.90;;;-6.20;97.30;;;;;;4955709;28;20215;-85
2022/12/13 08:48:26;;;;;;;1.60;1.50;;;-6.10;97.30;;;;;;4961843;28;20538;-85
2022/12/13 08:50:52;;;;;;;2.50;2.30;;;-6.00;97.30;;;;;;4955741;28;20531;-85
2022/12/13 08:53:18;;;;;;;2.33;2.13;;;-5.90;97.30;;;;;;4961845;28;20262;-85
2022/12/13 08:55:43;;;;;;;2.37;2.17;;;-5.80;97.30;;;;;;4954619;28;20417;-85
2022/12/13 08:58:09;;;;;;;2.40;2.20;;;-5.80;97.30;;;;;;4955487;28;20765;-86
2022/12/13 09:00:36;;;;;;;4.27;4.00;;;-5.70;97.30;;;;;;4954934;28;20231;-85
2022/12/13 09:03:04;;;;;;;4.93;4.43;;;-5.60;97.30;;;;;;4956152;28;20174;-85
2022/12/13 09:05:32;;;;;;;2.00;1.90;;;-5.50;97.30;;;;;;4956053;28;20416;-85
2022/12/13 09:07:57;;;;;;;3.30;3.10;;;-5.50;97.30;;;;;;4973584;28;20421;-85
2022/12/13 09:10:23;;;;;;;2.37;2.17;;;-5.40;97.30;;;;;;4955360;28;20480;-85
2022/12/13 09:12:49;;;;;;;3.60;2.77;;;-5.40;97.30;;;;;;4972858;28;20547;-85
2022/12/13 09:15:15;;;;;;;5.40;2.10;;;-5.30;97.30;;;;;;4954876;28;20435;-85
2022/12/13 09:17:40;;;;;;;5.23;2.23;;;-5.20;97.30;;;;;;4955237;28;20424;-85
2022/12/13 09:20:09;;;;;;;3.13;2.93;;;-5.20;97.30;;;;;;4959770;28;20221;-85
2022/12/13 09:22:35;;;;;;;2.17;2.00;;;-5.10;97.30;;;;;;4972499;28;20189;-85
2022/12/13 09:25:02;;;;;;;4.50;4.20;;;-5.10;97.30;;;;;;4955143;28;20440;-85
2022/12/13 09:27:27;;;;;;;2.37;2.17;;;-5.00;97.30;;;;;;4972684;28;20264;-86
2022/12/13 09:29:53;;;;;;;2.50;2.30;;;-4.90;97.30;;;;;;4956937;28;20546;-85
2022/12/13 09:32:18;;;;;;;3.10;2.60;;;-4.90;97.30;;;;;;4957919;28;20197;-85
2022/12/13 09:34:45;;;;;;;2.27;2.10;;;-4.90;97.30;;;;;;4959025;28;20204;-86
2022/12/13 09:37:12;;;;;;;2.90;2.70;;;-4.80;97.30;;;;;;4959883;28;20523;-85
2022/12/13 09:39:38;;;;;;;5.27;4.00;;;-4.80;97.30;;;;;;4970168;28;20456;-85
2022/12/13 09:42:04;;;;;;;4.47;4.17;;;-4.70;97.30;;;;;;4960065;28;20488;-85
2022/12/13 09:44:36;;;;;;;4.20;2.80;;;-4.70;97.30;;;;;;4959852;28;20462;-85
2022/12/13 09:47:08;;;;;;;2.27;2.07;;;-4.60;97.30;;;;;;4956030;28;20484;-85
2022/12/13 09:49:39;;;;;;;3.03;2.83;;;-4.50;97.30;;;;;;4954830;28;20999;-85
2022/12/13 09:52:09;;;;;;;2.80;2.47;;;-4.50;97.30;;;;;;4960240;28;20433;-85
2022/12/13 09:54:35;;;;;;;3.17;2.87;;;-4.40;97.30;;;;;;4972917;28;20420;-85
2022/12/13 09:57:01;;;;;;;2.93;2.50;;;-4.30;97.30;;;;;;4967442;28;20432;-85
2022/12/13 10:01:56;;;;;;;5.03;2.33;;;-4.20;97.30;;;;;;5006547;28;20217;-87
2022/12/13 10:04:22;;;;;;;3.57;3.37;;;-4.10;97.30;;;;;;4991626;28;20938;-87
2022/12/13 10:06:52;;;;;;;3.87;2.33;;;-4.10;97.30;;;;;;4999858;28;20423;-87
2022/12/13 10:09:18;;;;;;;6.57;1.93;;;-4.00;97.30;;;;;;5002260;28;20970;-88
2022/12/13 10:11:52;;;;;;;6.23;3.00;;;-3.90;97.30;;;;;;4995883;28;20505;-88
2022/12/13 10:14:31;;;;;;;4.23;2.93;;;-3.80;97.30;;;;;;4996274;28;20562;-87
2022/12/13 10:17:02;;;;;;;18.23;2.50;;;-3.70;97.30;;;;;;4993943;28;20419;-88
2022/12/13 10:19:34;;;;;;;3.13;2.17;;;-3.60;97.30;;;;;;4993004;28;20428;-88
2022/12/13 10:22:02;;;;;;;2.30;2.10;;;-3.50;97.30;;;;;;4992371;28;20516;-88
2022/12/13 10:24:47;;;;;;;2.27;2.10;;;-3.40;97.30;;;;;;4985597;28;20425;-87
2022/12/13 10:27:15;;;;;;;4.07;3.60;;;-3.30;97.30;;;;;;4995909;28;20426;-88
2022/12/13 10:30:10;;;;;;;10.13;3.23;;;-3.20;97.30;;;;;;4993202;28;20512;-88
2022/12/13 10:32:59;;;;;;;2.73;2.53;;;-3.20;97.30;;;;;;4992906;28;20440;-86
2022/12/13 10:35:29;;;;;;;3.00;2.80;;;-3.00;97.30;;;;;;5007870;28;20417;-89
2022/12/13 10:37:58;;;;;;;3.13;2.93;;;-2.90;97.30;;;;;;5008870;28;20432;-88
2022/12/13 10:40:23;;;;;;;2.90;2.03;;;-2.70;97.30;;;;;;5015991;28;20436;-88
2022/12/13 10:43:25;;;;;;;5.13;4.50;;;-2.70;97.30;;;;;;4996585;28;20457;-86
2022/12/13 10:46:00;;;;;;;5.33;4.77;;;-2.60;97.30;;;;;;4899049;29;20227;-88
2022/12/13 10:48:39;;;;;;;2.40;2.20;;;-2.60;97.30;;;;;;4971046;28;20474;-89
2022/12/13 10:51:18;;;;;;;6.20;3.83;;;-2.50;97.30;;;;;;4991547;28;20450;-87
2022/12/13 10:53:51;;;;;;;15.67;3.90;;;-2.50;97.30;;;;;;4988603;28;20512;-86
2022/12/13 10:56:17;;;;;;;5.50;3.87;;;-2.50;97.30;;;;;;4988500;28;20430;-87
2022/12/13 10:58:47;;;;;;;2.20;2.03;;;-2.30;97.30;;;;;;4980267;28;20416;-86
2022/12/13 11:01:22;;;;;;;6.13;3.27;;;-2.10;97.30;;;;;;4993974;28;20890;-87
2022/12/13 11:04:28;;;;;;;4.60;3.47;;;-2.00;97.30;;;;;;4985192;28;20445;-87
2022/12/13 11:06:55;;;;;;;2.93;2.70;;;-1.90;97.30;;;;;;4993180;28;20423;-87
2022/12/13 11:09:33;;;;;;;3.37;3.17;;;-1.80;97.30;;;;;;4995113;28;20542;-87
2022/12/13 11:12:10;;;;;;;4.93;4.60;;;-1.80;97.30;;;;;;4978433;28;20502;-88
2022/12/13 11:14:47;;;;;;;2.90;2.30;;;-1.70;97.30;;;;;;4991954;28;20417;-90
2022/12/13 11:17:19;;;;;;;1.50;1.40;;;-1.50;97.30;;;;;;4983616;28;20411;-89
2022/12/13 11:19:48;;;;;;;3.80;3.50;;;-1.40;97.30;;;;;;4994995;28;20443;-88
2022/12/13 11:22:24;;;;;;;5.03;3.27;;;-1.30;97.30;;;;;;4996711;28;20417;-90
2022/12/13 11:25:04;;;;;;;2.80;2.60;;;-1.20;97.30;;;;;;4996587;28;20473;-88
2022/12/13 11:27:56;;;;;;;5.13;4.83;;;-1.20;97.30;;;;;;4996564;28;20471;-90
2022/12/13 11:30:42;;;;;;;3.90;3.33;;;-1.10;97.30;;;;;;4996415;28;20942;-89
2022/12/13 11:33:19;;;;;;;3.83;1.93;;;-1.00;97.30;;;;;;4995763;28;20444;-88
2022/12/13 11:35:53;;;;;;;3.13;2.93;;;-1.00;97.30;;;;;;5013809;28;20791;-88
2022/12/13 11:39:11;;;;;;;6.17;3.37;;;-0.90;97.30;;;;;;4985119;28;20420;-90
2022/12/13 11:42:03;;;;;;;10.87;7.37;;;-0.80;97.30;;;;;;4984135;28;20471;-89
2022/12/13 11:44:50;;;;;;;3.97;3.10;;;-0.60;97.30;;;;;;4991529;28;20423;-89
2022/12/13 11:47:24;;;;;;;2.90;2.60;;;-0.50;97.30;;;;;;4995987;28;20922;-89
2022/12/13 11:49:51;;;;;;;13.53;3.60;;;-0.20;97.30;;;;;;4985621;28;20563;-90
2022/12/13 11:52:24;;;;;;;3.40;3.20;;;-0.10;97.30;;;;;;4990543;28;20427;-89
2022/12/13 11:54:58;;;;;;;2.30;2.10;;;0.00;97.30;;;;;;4995895;28;20510;-92
2022/12/13 11:57:41;;;;;;;9.97;4.07;;;0.10;97.30;;;;;;4996649;28;20415;-90
2022/12/13 12:00:28;;;;;;;6.73;3.43;;;0.10;97.20;;;;;;4987553;28;20466;-91
2022/12/13 12:03:00;;;;;;;3.70;3.50;;;-0.10;96.00;;;;;;5003055;28;20443;-90
2022/12/13 12:05:35;;;;;;;2.70;2.50;;;0.00;96.70;;;;;;4987569;28;20516;-90
2022/12/13 12:08:26;;;;;;;3.53;3.30;;;0.10;96.90;;;;;;4996125;28;20420;-92
2022/12/13 12:11:15;;;;;;;6.23;4.67;;;0.20;96.80;;;;;;5013514;28;20447;-90
2022/12/13 12:13:50;;;;;;;2.40;2.20;;;0.30;96.70;;;;;;4984510;28;20423;-92
2022/12/13 12:16:39;;;;;;;2.90;2.50;;;0.50;96.60;;;;;;4981649;28;20498;-90
2022/12/13 12:19:17;;;;;;;5.57;5.27;;;0.60;95.70;;;;;;4997424;28;20428;-92
2022/12/13 12:21:58;;;;;;;4.83;3.80;;;0.40;94.60;;;;;;4996190;28;20436;-91
2022/12/13 12:25:01;;;;;;;3.30;3.13;;;0.40;94.80;;;;;;4995911;28;20470;-90
2022/12/13 12:28:05;;;;;;;3.83;2.83;;;0.60;95.00;;;;;;4977327;28;20412;-91
2022/12/13 12:30:38;;;;;;;11.00;4.10;;;0.80;95.10;;;;;;4996075;28;20546;-92
2022/12/13 12:33:10;;;;;;;4.23;2.83;;;1.10;94.90;;;;;;4996369;28;20452;-91
2022/12/13 12:35:51;;;;;;;5.43;2.90;;;1.10;94.50;;;;;;4993829;28;20424;-93
2022/12/13 12:38:54;;;;;;;4.87;3.67;;;1.10;93.90;;;;;;4996276;28;20424;-91
2022/12/13 12:41:22;;;;;;;3.40;3.20;;;1.30;94.00;;;;;;4993901;28;20850;-93
2022/12/13 12:44:17;;;;;;;15.20;5.70;;;1.30;93.30;;;;;;4986370;28;20424;-91
2022/12/13 12:47:13;;;;;;;3.43;3.20;;;1.50;93.70;;;;;;4990144;28;20431;-91
2022/12/13 12:50:12;;;;;;;2.93;2.73;;;1.60;93.30;;;;;;4996296;28;20487;-90
2022/12/13 12:52:49;;;;;;;5.13;4.80;;;1.70;92.90;;;;;;4995759;28;20416;-93
2022/12/13 12:55:34;;;;;;;2.07;1.93;;;1.60;92.40;;;;;;4983436;28;20432;-94
2022/12/13 12:58:27;;;;;;;5.30;4.20;;;1.60;92.10;;;;;;4991453;28;20428;-94
2022/12/13 13:01:10;;;;;;;5.90;3.73;;;1.80;92.40;;;;;;4975063;28;20459;-93
2022/12/13 13:03:39;;;;;;;4.50;2.80;;;1.70;91.00;;;;;;5009177;28;20428;-94
2022/12/13 13:06:26;;;;;;;2.47;2.20;;;1.80;91.30;;;;;;4991860;28;20424;-93
2022/12/13 13:09:03;;;;;;;8.53;4.63;;;1.90;91.10;;;;;;4988277;28;20902;-93
2022/12/13 13:11:32;;;;;;;4.33;2.70;;;2.10;90.70;;;;;;4997156;28;20436;-93
2022/12/13 13:13:58;;;;;;;3.90;2.23;;;2.20;90.70;;;;;;4989465;28;20484;-94